sensor_id;sensor_type;location;lat;lon;timestamp;temperature;humidity
46117;DHT22;32591;48.102;11.772;2022-08-21T00:00:14;17.10;99.90
46117;DHT22;32591;48.102;11.772;2022-08-21T00:02:59;17.00;99.90
46117;DHT22;32591;48.102;11.772;2022-08-21T00:05:28;17.00;99.90
46117;DHT22;32591;48.102;11.772;2022-08-21T00:07:55;16.90;99.90
46117;DHT22;32591;48.102;11.772;2022-08-21T00:10:23;16.80;99.90
46117;DHT22;32591;48.102;11.772;2022-08-21T00:12:50;16.80;99.90
46117;DHT22;32591;48.102;11.772;2022-08-21T00:15:21;16.80;99.90
46117;DHT22;32591;48.102;11.772;2022-08-21T00:17:51;16.80;99.90
46117;DHT22;32591;48.102;11.772;2022-08-21T00:20:20;16.80;99.90
46117;DHT22;32591;48.102;11.772;2022-08-21T00:22:48;16.80;99.90
46117;DHT22;32591;48.102;11.772;2022-08-21T00:25:17;16.80;99.90
46117;DHT22;32591;48.102;11.772;2022-08-21T00:27:44;16.80;99.90
46117;DHT22;32591;48.102;11.772;2022-08-21T00:30:14;16.70;99.90
46117;DHT22;32591;48.102;11.772;2022-08-21T00:32:43;16.80;99.90
46117;DHT22;32591;48.102;11.772;2022-08-21T00:35:12;16.80;99.90
46117;DHT22;32591;48.102;11.772;2022-08-21T00:37:43;16.80;99.90
46117;DHT22;32591;48.102;11.772;2022-08-21T00:40:14;16.80;99.90
46117;DHT22;32591;48.102;11.772;2022-08-21T00:42:43;16.80;99.90
46117;DHT22;32591;48.102;11.772;2022-08-21T00:45:10;16.80;99.90
46117;DHT22;32591;48.102;11.772;2022-08-21T00:47:38;16.70;99.90
46117;DHT22;32591;48.102;11.772;2022-08-21T00:50:08;16.70;99.90
46117;DHT22;32591;48.102;11.772;2022-08-21T00:52:37;16.70;99.90
46117;DHT22;32591;48.102;11.772;2022-08-21T00:55:08;16.70;99.90
46117;DHT22;32591;48.102;11.772;2022-08-21T00:57:41;16.50;99.90
46117;DHT22;32591;48.102;11.772;2022-08-21T01:00:15;16.50;99.90
46117;DHT22;32591;48.102;11.772;2022-08-21T01:02:45;16.40;99.90
46117;DHT22;32591;48.102;11.772;2022-08-21T01:05:12;16.50;99.90
46117;DHT22;32591;48.102;11.772;2022-08-21T01:07:40;16.50;99.90
46117;DHT22;32591;48.102;11.772;2022-08-21T01:10:09;16.50;99.90
46117;DHT22;32591;48.102;11.772;2022-08-21T01:12:36;16.40;99.90
46117;DHT22;32591;48.102;11.772;2022-08-21T01:15:05;16.40;99.90
46117;DHT22;32591;48.102;11.772;2022-08-21T01:17:34;16.40;99.90
46117;DHT22;32591;48.102;11.772;2022-08-21T01:20:06;16.50;99.90
46117;DHT22;32591;48.102;11.772;2022-08-21T01:22:36;16.50;99.90
46117;DHT22;32591;48.102;11.772;2022-08-21T01:25:04;16.40;99.90
46117;DHT22;32591;48.102;11.772;2022-08-21T01:27:33;16.30;99.90
46117;DHT22;32591;48.102;11.772;2022-08-21T01:30:09;16.30;99.90
46117;DHT22;32591;48.102;11.772;2022-08-21T01:32:38;16.20;99.90
46117;DHT22;32591;48.102;11.772;2022-08-21T01:35:06;16.20;99.90
46117;DHT22;32591;48.102;11.772;2022-08-21T01:37:35;16.20;99.90
46117;DHT22;32591;48.102;11.772;2022-08-21T01:40:04;16.10;99.90
46117;DHT22;32591;48.102;11.772;2022-08-21T01:42:32;16.10;99.90
46117;DHT22;32591;48.102;11.772;2022-08-21T01:44:59;16.10;99.90
46117;DHT22;32591;48.102;11.772;2022-08-21T01:47:27;16.10;99.90
46117;DHT22;32591;48.102;11.772;2022-08-21T01:49:54;16.10;99.90
46117;DHT22;32591;48.102;11.772;2022-08-21T01:52:20;16.10;99.90
46117;DHT22;32591;48.102;11.772;2022-08-21T01:54:49;16.10;99.90
46117;DHT22;32591;48.102;11.772;2022-08-21T01:57:16;16.10;99.90
46117;DHT22;32591;48.102;11.772;2022-08-21T01:59:43;16.00;99.90
46117;DHT22;32591;48.102;11.772;2022-08-21T02:02:10;16.10;99.90
46117;DHT22;32591;48.102;11.772;2022-08-21T02:04:37;16.20;99.90
46117;DHT22;32591;48.102;11.772;2022-08-21T02:07:04;16.10;99.90
46117;DHT22;32591;48.102;11.772;2022-08-21T02:09:31;16.10;99.90
46117;DHT22;32591;48.102;11.772;2022-08-21T02:11:59;16.10;99.90
46117;DHT22;32591;48.102;11.772;2022-08-21T02:14:26;16.10;99.90
46117;DHT22;32591;48.102;11.772;2022-08-21T02:16:53;16.10;99.90
46117;DHT22;32591;48.102;11.772;2022-08-21T02:19:20;16.10;99.90
46117;DHT22;32591;48.102;11.772;2022-08-21T02:21:47;16.10;99.90
46117;DHT22;32591;48.102;11.772;2022-08-21T02:24:14;16.10;99.90
46117;DHT22;32591;48.102;11.772;2022-08-21T02:26:41;16.10;99.90
46117;DHT22;32591;48.102;11.772;2022-08-21T02:29:09;16.10;99.90
46117;DHT22;32591;48.102;11.772;2022-08-21T02:31:36;16.20;99.90
46117;DHT22;32591;48.102;11.772;2022-08-21T02:34:03;16.20;99.90
46117;DHT22;32591;48.102;11.772;2022-08-21T02:36:30;16.10;99.90
46117;DHT22;32591;48.102;11.772;2022-08-21T02:38:57;16.10;99.90
46117;DHT22;32591;48.102;11.772;2022-08-21T02:41:24;16.10;99.90
46117;DHT22;32591;48.102;11.772;2022-08-21T02:43:51;16.10;99.90
46117;DHT22;32591;48.102;11.772;2022-08-21T02:46:20;16.00;99.90
46117;DHT22;32591;48.102;11.772;2022-08-21T02:48:48;16.00;99.90
46117;DHT22;32591;48.102;11.772;2022-08-21T02:51:17;15.90;99.90
46117;DHT22;32591;48.102;11.772;2022-08-21T02:53:46;15.80;99.90
46117;DHT22;32591;48.102;11.772;2022-08-21T02:56:16;15.70;99.90
46117;DHT22;32591;48.102;11.772;2022-08-21T02:58:47;15.70;99.90
46117;DHT22;32591;48.102;11.772;2022-08-21T03:01:17;15.60;99.90
46117;DHT22;32591;48.102;11.772;2022-08-21T03:03:47;15.70;99.90
46117;DHT22;32591;48.102;11.772;2022-08-21T03:06:17;15.60;99.90
46117;DHT22;32591;48.102;11.772;2022-08-21T03:08:45;15.70;99.90
46117;DHT22;32591;48.102;11.772;2022-08-21T03:11:13;15.70;99.90
46117;DHT22;32591;48.102;11.772;2022-08-21T03:13:50;15.70;99.90
46117;DHT22;32591;48.102;11.772;2022-08-21T03:16:17;15.70;99.90
46117;DHT22;32591;48.102;11.772;2022-08-21T03:18:47;15.70;99.90
46117;DHT22;32591;48.102;11.772;2022-08-21T03:21:14;15.70;99.90
46117;DHT22;32591;48.102;11.772;2022-08-21T03:23:41;15.70;99.90
46117;DHT22;32591;48.102;11.772;2022-08-21T03:26:08;15.70;99.90
46117;DHT22;32591;48.102;11.772;2022-08-21T03:28:36;15.60;99.90
46117;DHT22;32591;48.102;11.772;2022-08-21T03:31:03;15.60;99.90
46117;DHT22;32591;48.102;11.772;2022-08-21T03:33:31;15.50;99.90
46117;DHT22;32591;48.102;11.772;2022-08-21T03:36:03;15.50;99.90
46117;DHT22;32591;48.102;11.772;2022-08-21T03:38:32;15.40;99.90
46117;DHT22;32591;48.102;11.772;2022-08-21T03:40:59;15.50;99.90
46117;DHT22;32591;48.102;11.772;2022-08-21T03:43:27;15.50;99.90
46117;DHT22;32591;48.102;11.772;2022-08-21T03:45:54;15.50;99.90
46117;DHT22;32591;48.102;11.772;2022-08-21T03:48:21;15.50;99.90
46117;DHT22;32591;48.102;11.772;2022-08-21T03:50:48;15.40;99.90
46117;DHT22;32591;48.102;11.772;2022-08-21T03:53:16;15.40;99.90
46117;DHT22;32591;48.102;11.772;2022-08-21T03:55:45;15.40;99.90
46117;DHT22;32591;48.102;11.772;2022-08-21T03:58:13;15.40;99.90
46117;DHT22;32591;48.102;11.772;2022-08-21T04:00:40;15.40;99.90
46117;DHT22;32591;48.102;11.772;2022-08-21T04:03:07;15.30;99.90
46117;DHT22;32591;48.102;11.772;2022-08-21T04:05:33;15.30;99.90
46117;DHT22;32591;48.102;11.772;2022-08-21T04:08:04;15.30;99.90
46117;DHT22;32591;48.102;11.772;2022-08-21T04:10:34;15.30;99.90
46117;DHT22;32591;48.102;11.772;2022-08-21T04:13:03;15.20;99.90
46117;DHT22;32591;48.102;11.772;2022-08-21T04:15:31;15.30;99.90
46117;DHT22;32591;48.102;11.772;2022-08-21T04:17:58;15.30;99.90
46117;DHT22;32591;48.102;11.772;2022-08-21T04:20:26;15.20;99.90
46117;DHT22;32591;48.102;11.772;2022-08-21T04:23:03;15.10;99.90
46117;DHT22;32591;48.102;11.772;2022-08-21T04:25:31;15.10;99.90
46117;DHT22;32591;48.102;11.772;2022-08-21T04:27:59;15.00;99.90
46117;DHT22;32591;48.102;11.772;2022-08-21T04:30:27;15.00;99.90
46117;DHT22;32591;48.102;11.772;2022-08-21T04:32:55;15.10;99.90
46117;DHT22;32591;48.102;11.772;2022-08-21T04:35:23;15.10;99.90
46117;DHT22;32591;48.102;11.772;2022-08-21T04:37:51;15.20;99.90
46117;DHT22;32591;48.102;11.772;2022-08-21T04:40:19;15.20;99.90
46117;DHT22;32591;48.102;11.772;2022-08-21T04:42:51;15.20;99.90
46117;DHT22;32591;48.102;11.772;2022-08-21T04:45:22;15.30;99.90
46117;DHT22;32591;48.102;11.772;2022-08-21T04:47:51;15.20;99.90
46117;DHT22;32591;48.102;11.772;2022-08-21T04:50:19;15.30;99.90
46117;DHT22;32591;48.102;11.772;2022-08-21T04:52:47;15.30;99.90
46117;DHT22;32591;48.102;11.772;2022-08-21T04:55:16;15.30;99.90
46117;DHT22;32591;48.102;11.772;2022-08-21T04:57:43;15.30;99.90
46117;DHT22;32591;48.102;11.772;2022-08-21T05:00:13;15.30;99.90
46117;DHT22;32591;48.102;11.772;2022-08-21T05:02:43;15.40;99.90
46117;DHT22;32591;48.102;11.772;2022-08-21T05:05:11;15.30;99.90
46117;DHT22;32591;48.102;11.772;2022-08-21T05:07:38;15.30;99.90
46117;DHT22;32591;48.102;11.772;2022-08-21T05:10:06;15.30;99.90
46117;DHT22;32591;48.102;11.772;2022-08-21T05:12:34;15.30;99.90
46117;DHT22;32591;48.102;11.772;2022-08-21T05:15:01;15.40;99.90
46117;DHT22;32591;48.102;11.772;2022-08-21T05:17:30;15.40;99.90
46117;DHT22;32591;48.102;11.772;2022-08-21T05:19:57;15.40;99.90
46117;DHT22;32591;48.102;11.772;2022-08-21T05:22:24;15.40;99.90
46117;DHT22;32591;48.102;11.772;2022-08-21T05:24:51;15.40;99.90
46117;DHT22;32591;48.102;11.772;2022-08-21T05:27:18;15.40;99.90
46117;DHT22;32591;48.102;11.772;2022-08-21T05:29:45;15.50;99.90
46117;DHT22;32591;48.102;11.772;2022-08-21T05:32:13;15.60;99.90
46117;DHT22;32591;48.102;11.772;2022-08-21T05:34:42;15.70;99.90
46117;DHT22;32591;48.102;11.772;2022-08-21T05:37:10;15.80;99.90
46117;DHT22;32591;48.102;11.772;2022-08-21T05:39:37;15.80;99.90
46117;DHT22;32591;48.102;11.772;2022-08-21T05:42:05;15.70;99.90
46117;DHT22;32591;48.102;11.772;2022-08-21T05:44:32;15.80;99.90
46117;DHT22;32591;48.102;11.772;2022-08-21T05:47:03;15.90;99.90
46117;DHT22;32591;48.102;11.772;2022-08-21T05:49:31;15.90;99.90
46117;DHT22;32591;48.102;11.772;2022-08-21T05:51:59;16.00;99.90
46117;DHT22;32591;48.102;11.772;2022-08-21T05:54:26;16.10;99.90
46117;DHT22;32591;48.102;11.772;2022-08-21T05:56:54;16.10;99.90
46117;DHT22;32591;48.102;11.772;2022-08-21T05:59:21;16.30;99.90
46117;DHT22;32591;48.102;11.772;2022-08-21T06:01:47;16.30;99.90
46117;DHT22;32591;48.102;11.772;2022-08-21T06:04:14;16.40;99.90
46117;DHT22;32591;48.102;11.772;2022-08-21T06:06:41;16.40;99.90
46117;DHT22;32591;48.102;11.772;2022-08-21T06:09:10;16.40;99.90
46117;DHT22;32591;48.102;11.772;2022-08-21T06:11:37;16.40;99.90
46117;DHT22;32591;48.102;11.772;2022-08-21T06:14:03;16.50;99.90
46117;DHT22;32591;48.102;11.772;2022-08-21T06:16:32;16.50;99.90
46117;DHT22;32591;48.102;11.772;2022-08-21T06:18:59;16.60;99.90
46117;DHT22;32591;48.102;11.772;2022-08-21T06:21:27;16.70;99.90
46117;DHT22;32591;48.102;11.772;2022-08-21T06:23:54;16.80;99.90
46117;DHT22;32591;48.102;11.772;2022-08-21T06:26:22;16.80;99.90
46117;DHT22;32591;48.102;11.772;2022-08-21T06:28:49;16.80;99.90
46117;DHT22;32591;48.102;11.772;2022-08-21T06:31:19;16.90;99.90
46117;DHT22;32591;48.102;11.772;2022-08-21T06:33:47;16.90;99.90
46117;DHT22;32591;48.102;11.772;2022-08-21T06:36:14;17.00;99.90
46117;DHT22;32591;48.102;11.772;2022-08-21T06:38:43;17.00;99.90
46117;DHT22;32591;48.102;11.772;2022-08-21T06:41:10;17.10;99.90
46117;DHT22;32591;48.102;11.772;2022-08-21T06:43:38;17.20;99.90
46117;DHT22;32591;48.102;11.772;2022-08-21T06:46:06;17.20;99.90
46117;DHT22;32591;48.102;11.772;2022-08-21T06:48:33;17.20;99.90
46117;DHT22;32591;48.102;11.772;2022-08-21T06:51:00;17.30;99.90
46117;DHT22;32591;48.102;11.772;2022-08-21T06:53:28;17.40;99.90
46117;DHT22;32591;48.102;11.772;2022-08-21T06:55:55;17.50;99.90
46117;DHT22;32591;48.102;11.772;2022-08-21T06:58:22;17.60;99.90
46117;DHT22;32591;48.102;11.772;2022-08-21T07:00:50;17.60;99.90
46117;DHT22;32591;48.102;11.772;2022-08-21T07:03:19;17.70;99.90
46117;DHT22;32591;48.102;11.772;2022-08-21T07:05:49;17.70;99.90
46117;DHT22;32591;48.102;11.772;2022-08-21T07:08:16;17.70;99.90
46117;DHT22;32591;48.102;11.772;2022-08-21T07:10:44;17.80;99.90
46117;DHT22;32591;48.102;11.772;2022-08-21T07:13:11;17.80;99.90
46117;DHT22;32591;48.102;11.772;2022-08-21T07:15:39;17.90;99.90
46117;DHT22;32591;48.102;11.772;2022-08-21T07:18:07;17.90;99.90
46117;DHT22;32591;48.102;11.772;2022-08-21T07:20:34;18.00;99.90
46117;DHT22;32591;48.102;11.772;2022-08-21T07:23:03;18.00;99.90
46117;DHT22;32591;48.102;11.772;2022-08-21T07:25:31;18.10;99.90
46117;DHT22;32591;48.102;11.772;2022-08-21T07:27:58;18.20;99.90
46117;DHT22;32591;48.102;11.772;2022-08-21T07:30:26;18.20;99.90
46117;DHT22;32591;48.102;11.772;2022-08-21T07:32:53;18.30;99.90
46117;DHT22;32591;48.102;11.772;2022-08-21T07:35:23;18.30;99.90
46117;DHT22;32591;48.102;11.772;2022-08-21T07:37:50;18.30;99.90
46117;DHT22;32591;48.102;11.772;2022-08-21T07:40:17;18.50;99.90
46117;DHT22;32591;48.102;11.772;2022-08-21T07:42:47;18.50;99.90
46117;DHT22;32591;48.102;11.772;2022-08-21T07:45:18;18.60;99.90
46117;DHT22;32591;48.102;11.772;2022-08-21T07:47:46;18.70;99.90
46117;DHT22;32591;48.102;11.772;2022-08-21T07:50:14;18.70;99.90
46117;DHT22;32591;48.102;11.772;2022-08-21T07:52:43;18.80;99.90
46117;DHT22;32591;48.102;11.772;2022-08-21T07:55:14;18.90;99.90
46117;DHT22;32591;48.102;11.772;2022-08-21T07:57:42;19.00;99.90
46117;DHT22;32591;48.102;11.772;2022-08-21T08:00:13;19.10;99.90
46117;DHT22;32591;48.102;11.772;2022-08-21T08:02:44;19.20;99.90
46117;DHT22;32591;48.102;11.772;2022-08-21T08:05:16;19.30;99.90
46117;DHT22;32591;48.102;11.772;2022-08-21T08:07:45;19.30;99.90
46117;DHT22;32591;48.102;11.772;2022-08-21T08:10:14;19.40;99.90
46117;DHT22;32591;48.102;11.772;2022-08-21T08:12:41;19.50;99.80
46117;DHT22;32591;48.102;11.772;2022-08-21T08:15:12;19.50;99.90
46117;DHT22;32591;48.102;11.772;2022-08-21T08:17:40;19.50;99.80
46117;DHT22;32591;48.102;11.772;2022-08-21T08:20:09;19.60;98.90
46117;DHT22;32591;48.102;11.772;2022-08-21T08:22:39;19.70;99.20
46117;DHT22;32591;48.102;11.772;2022-08-21T08:25:10;19.80;99.20
46117;DHT22;32591;48.102;11.772;2022-08-21T08:27:39;19.90;97.70
46117;DHT22;32591;48.102;11.772;2022-08-21T08:30:09;19.90;98.30
46117;DHT22;32591;48.102;11.772;2022-08-21T08:32:38;20.00;97.90
46117;DHT22;32591;48.102;11.772;2022-08-21T08:35:07;20.10;97.60
46117;DHT22;32591;48.102;11.772;2022-08-21T08:37:36;20.10;97.40
46117;DHT22;32591;48.102;11.772;2022-08-21T08:40:09;20.10;97.40
46117;DHT22;32591;48.102;11.772;2022-08-21T08:42:37;20.30;96.90
46117;DHT22;32591;48.102;11.772;2022-08-21T08:45:07;20.30;97.10
46117;DHT22;32591;48.102;11.772;2022-08-21T08:47:39;20.40;95.90
46117;DHT22;32591;48.102;11.772;2022-08-21T08:50:12;20.40;96.10
46117;DHT22;32591;48.102;11.772;2022-08-21T08:52:47;20.50;96.40
46117;DHT22;32591;48.102;11.772;2022-08-21T08:55:19;20.50;95.10
46117;DHT22;32591;48.102;11.772;2022-08-21T08:57:49;20.70;94.70
46117;DHT22;32591;48.102;11.772;2022-08-21T09:00:19;20.90;93.70
46117;DHT22;32591;48.102;11.772;2022-08-21T09:03:00;21.00;92.70
46117;DHT22;32591;48.102;11.772;2022-08-21T09:05:30;21.10;92.50
46117;DHT22;32591;48.102;11.772;2022-08-21T09:08:32;21.10;91.90
46117;DHT22;32591;48.102;11.772;2022-08-21T09:11:15;21.30;93.00
46117;DHT22;32591;48.102;11.772;2022-08-21T09:13:55;21.30;91.50
46117;DHT22;32591;48.102;11.772;2022-08-21T09:16:37;21.40;91.60
46117;DHT22;32591;48.102;11.772;2022-08-21T09:19:13;21.40;91.00
46117;DHT22;32591;48.102;11.772;2022-08-21T09:22:02;21.60;91.40
46117;DHT22;32591;48.102;11.772;2022-08-21T09:24:39;21.60;90.90
46117;DHT22;32591;48.102;11.772;2022-08-21T09:27:14;21.60;90.70
46117;DHT22;32591;48.102;11.772;2022-08-21T09:29:44;21.70;90.60
46117;DHT22;32591;48.102;11.772;2022-08-21T09:32:17;21.80;90.30
46117;DHT22;32591;48.102;11.772;2022-08-21T09:34:59;21.80;90.00
46117;DHT22;32591;48.102;11.772;2022-08-21T09:37:30;21.90;89.10
46117;DHT22;32591;48.102;11.772;2022-08-21T09:40:00;22.10;88.90
46117;DHT22;32591;48.102;11.772;2022-08-21T09:42:31;22.20;88.80
46117;DHT22;32591;48.102;11.772;2022-08-21T09:45:10;22.20;86.70
46117;DHT22;32591;48.102;11.772;2022-08-21T09:47:40;22.30;87.70
46117;DHT22;32591;48.102;11.772;2022-08-21T09:50:09;22.50;87.60
46117;DHT22;32591;48.102;11.772;2022-08-21T09:52:44;22.60;85.50
46117;DHT22;32591;48.102;11.772;2022-08-21T09:55:19;22.30;85.90
46117;DHT22;32591;48.102;11.772;2022-08-21T09:58:09;22.00;86.60
46117;DHT22;32591;48.102;11.772;2022-08-21T10:00:36;21.80;86.80
46117;DHT22;32591;48.102;11.772;2022-08-21T10:03:12;21.70;87.30
46117;DHT22;32591;48.102;11.772;2022-08-21T10:05:55;22.00;86.40
46117;DHT22;32591;48.102;11.772;2022-08-21T10:08:25;22.30;86.30
46117;DHT22;32591;48.102;11.772;2022-08-21T10:10:57;22.70;84.20
46117;DHT22;32591;48.102;11.772;2022-08-21T10:13:41;22.80;83.20
46117;DHT22;32591;48.102;11.772;2022-08-21T10:16:27;23.00;83.30
46117;DHT22;32591;48.102;11.772;2022-08-21T10:19:08;23.20;83.10
46117;DHT22;32591;48.102;11.772;2022-08-21T10:21:49;23.50;80.30
46117;DHT22;32591;48.102;11.772;2022-08-21T10:24:31;23.40;76.40
46117;DHT22;32591;48.102;11.772;2022-08-21T10:27:09;23.00;78.90
46117;DHT22;32591;48.102;11.772;2022-08-21T10:29:49;22.80;79.00
46117;DHT22;32591;48.102;11.772;2022-08-21T10:32:43;22.60;77.30
46117;DHT22;32591;48.102;11.772;2022-08-21T10:35:23;22.60;80.70
46117;DHT22;32591;48.102;11.772;2022-08-21T10:38:21;23.20;80.10
46117;DHT22;32591;48.102;11.772;2022-08-21T10:41:06;23.30;81.00
46117;DHT22;32591;48.102;11.772;2022-08-21T10:43:46;23.10;82.80
46117;DHT22;32591;48.102;11.772;2022-08-21T10:46:45;22.80;82.60
46117;DHT22;32591;48.102;11.772;2022-08-21T10:52:36;22.90;82.30
46117;DHT22;32591;48.102;11.772;2022-08-21T10:55:18;23.10;81.60
46117;DHT22;32591;48.102;11.772;2022-08-21T10:57:51;23.10;82.80
46117;DHT22;32591;48.102;11.772;2022-08-21T11:00:22;23.20;81.30
46117;DHT22;32591;48.102;11.772;2022-08-21T11:02:55;22.90;82.00
46117;DHT22;32591;48.102;11.772;2022-08-21T11:05:30;23.00;83.10
46117;DHT22;32591;48.102;11.772;2022-08-21T11:08:03;22.80;83.40
46117;DHT22;32591;48.102;11.772;2022-08-21T11:10:37;22.80;85.30
46117;DHT22;32591;48.102;11.772;2022-08-21T11:13:12;22.90;84.30
46117;DHT22;32591;48.102;11.772;2022-08-21T11:15:47;22.80;82.60
46117;DHT22;32591;48.102;11.772;2022-08-21T11:18:24;22.70;83.60
46117;DHT22;32591;48.102;11.772;2022-08-21T11:21:01;22.70;85.20
46117;DHT22;32591;48.102;11.772;2022-08-21T11:23:38;22.70;85.60
46117;DHT22;32591;48.102;11.772;2022-08-21T11:26:10;22.70;85.20
46117;DHT22;32591;48.102;11.772;2022-08-21T11:28:46;22.80;84.80
46117;DHT22;32591;48.102;11.772;2022-08-21T11:31:27;22.80;85.50
46117;DHT22;32591;48.102;11.772;2022-08-21T11:34:12;22.80;86.10
46117;DHT22;32591;48.102;11.772;2022-08-21T11:36:51;23.20;84.50
46117;DHT22;32591;48.102;11.772;2022-08-21T11:39:30;23.60;81.60
46117;DHT22;32591;48.102;11.772;2022-08-21T11:42:06;23.90;80.70
46117;DHT22;32591;48.102;11.772;2022-08-21T11:44:48;24.10;78.10
46117;DHT22;32591;48.102;11.772;2022-08-21T11:47:27;24.20;77.30
46117;DHT22;32591;48.102;11.772;2022-08-21T11:50:11;24.40;77.20
46117;DHT22;32591;48.102;11.772;2022-08-21T11:52:44;24.40;77.00
46117;DHT22;32591;48.102;11.772;2022-08-21T11:55:17;24.50;75.00
46117;DHT22;32591;48.102;11.772;2022-08-21T11:57:51;24.70;74.50
46117;DHT22;32591;48.102;11.772;2022-08-21T12:00:23;24.60;75.80
46117;DHT22;32591;48.102;11.772;2022-08-21T12:02:56;24.20;75.50
46117;DHT22;32591;48.102;11.772;2022-08-21T12:05:42;23.90;76.20
46117;DHT22;32591;48.102;11.772;2022-08-21T12:08:13;23.60;77.20
46117;DHT22;32591;48.102;11.772;2022-08-21T12:10:46;23.50;73.10
46117;DHT22;32591;48.102;11.772;2022-08-21T12:13:30;23.50;74.20
46117;DHT22;32591;48.102;11.772;2022-08-21T12:16:09;23.90;70.80
46117;DHT22;32591;48.102;11.772;2022-08-21T12:18:38;24.40;68.90
46117;DHT22;32591;48.102;11.772;2022-08-21T12:21:19;24.60;67.60
46117;DHT22;32591;48.102;11.772;2022-08-21T12:23:59;24.90;65.40
46117;DHT22;32591;48.102;11.772;2022-08-21T12:26:32;25.30;71.00
46117;DHT22;32591;48.102;11.772;2022-08-21T12:29:13;25.40;72.80
46117;DHT22;32591;48.102;11.772;2022-08-21T12:31:51;25.70;73.00
46117;DHT22;32591;48.102;11.772;2022-08-21T12:34:23;25.40;71.90
46117;DHT22;32591;48.102;11.772;2022-08-21T12:36:58;25.10;72.00
46117;DHT22;32591;48.102;11.772;2022-08-21T12:39:29;24.70;71.20
46117;DHT22;32591;48.102;11.772;2022-08-21T12:42:00;24.20;71.80
46117;DHT22;32591;48.102;11.772;2022-08-21T12:44:37;24.00;73.60
46117;DHT22;32591;48.102;11.772;2022-08-21T12:47:15;23.90;73.30
46117;DHT22;32591;48.102;11.772;2022-08-21T12:49:51;23.80;73.00
46117;DHT22;32591;48.102;11.772;2022-08-21T12:52:27;23.60;71.50
46117;DHT22;32591;48.102;11.772;2022-08-21T12:54:56;23.50;73.70
46117;DHT22;32591;48.102;11.772;2022-08-21T12:57:24;23.20;75.20
46117;DHT22;32591;48.102;11.772;2022-08-21T12:59:54;23.20;75.60
46117;DHT22;32591;48.102;11.772;2022-08-21T13:02:25;23.20;74.60
46117;DHT22;32591;48.102;11.772;2022-08-21T13:04:55;23.20;74.60
46117;DHT22;32591;48.102;11.772;2022-08-21T13:07:27;23.20;75.20
46117;DHT22;32591;48.102;11.772;2022-08-21T13:09:58;23.30;75.80
46117;DHT22;32591;48.102;11.772;2022-08-21T13:12:27;23.30;74.80
46117;DHT22;32591;48.102;11.772;2022-08-21T13:14:57;23.30;74.40
46117;DHT22;32591;48.102;11.772;2022-08-21T13:17:26;23.30;73.00
46117;DHT22;32591;48.102;11.772;2022-08-21T13:19:59;23.30;72.10
46117;DHT22;32591;48.102;11.772;2022-08-21T13:22:28;23.60;72.60
46117;DHT22;32591;48.102;11.772;2022-08-21T13:24:55;24.00;72.20
46117;DHT22;32591;48.102;11.772;2022-08-21T13:27:25;24.40;71.00
46117;DHT22;32591;48.102;11.772;2022-08-21T13:30:03;24.60;68.00
46117;DHT22;32591;48.102;11.772;2022-08-21T13:32:35;24.80;67.70
46117;DHT22;32591;48.102;11.772;2022-08-21T13:35:13;24.90;66.80
46117;DHT22;32591;48.102;11.772;2022-08-21T13:37:45;25.00;66.60
46117;DHT22;32591;48.102;11.772;2022-08-21T13:40:16;25.30;69.00
46117;DHT22;32591;48.102;11.772;2022-08-21T13:42:56;25.60;69.10
46117;DHT22;32591;48.102;11.772;2022-08-21T13:45:27;25.50;68.70
46117;DHT22;32591;48.102;11.772;2022-08-21T13:48:00;25.30;68.60
46117;DHT22;32591;48.102;11.772;2022-08-21T13:50:28;25.10;69.50
46117;DHT22;32591;48.102;11.772;2022-08-21T13:53:01;25.10;68.10
46117;DHT22;32591;48.102;11.772;2022-08-21T13:55:39;25.20;68.40
46117;DHT22;32591;48.102;11.772;2022-08-21T13:58:09;25.00;67.60
46117;DHT22;32591;48.102;11.772;2022-08-21T14:00:45;24.70;69.30
46117;DHT22;32591;48.102;11.772;2022-08-21T14:03:26;24.60;69.40
46117;DHT22;32591;48.102;11.772;2022-08-21T14:05:56;24.80;69.30
46117;DHT22;32591;48.102;11.772;2022-08-21T14:08:31;25.00;67.60
46117;DHT22;32591;48.102;11.772;2022-08-21T14:11:00;25.10;67.70
46117;DHT22;32591;48.102;11.772;2022-08-21T14:13:36;25.40;66.80
46117;DHT22;32591;48.102;11.772;2022-08-21T14:16:13;25.70;67.40
46117;DHT22;32591;48.102;11.772;2022-08-21T14:18:47;26.10;67.70
46117;DHT22;32591;48.102;11.772;2022-08-21T14:21:30;26.20;64.20
46117;DHT22;32591;48.102;11.772;2022-08-21T14:24:08;26.10;63.90
46117;DHT22;32591;48.102;11.772;2022-08-21T14:26:43;26.20;64.80
46117;DHT22;32591;48.102;11.772;2022-08-21T14:29:14;26.50;65.60
46117;DHT22;32591;48.102;11.772;2022-08-21T14:31:47;26.70;64.00
46117;DHT22;32591;48.102;11.772;2022-08-21T14:34:16;26.20;64.20
46117;DHT22;32591;48.102;11.772;2022-08-21T14:36:43;25.90;64.00
46117;DHT22;32591;48.102;11.772;2022-08-21T14:39:12;25.40;65.20
46117;DHT22;32591;48.102;11.772;2022-08-21T14:41:39;25.50;64.60
46117;DHT22;32591;48.102;11.772;2022-08-21T14:44:08;25.70;64.70
46117;DHT22;32591;48.102;11.772;2022-08-21T14:46:36;25.80;64.30
46117;DHT22;32591;48.102;11.772;2022-08-21T14:49:03;26.00;64.90
46117;DHT22;32591;48.102;11.772;2022-08-21T14:51:30;26.20;63.20
46117;DHT22;32591;48.102;11.772;2022-08-21T14:53:57;26.30;62.70
46117;DHT22;32591;48.102;11.772;2022-08-21T14:56:26;26.10;63.00
46117;DHT22;32591;48.102;11.772;2022-08-21T14:58:53;26.10;63.80
46117;DHT22;32591;48.102;11.772;2022-08-21T15:01:22;26.10;63.60
46117;DHT22;32591;48.102;11.772;2022-08-21T15:03:49;26.10;61.80
46117;DHT22;32591;48.102;11.772;2022-08-21T15:06:17;26.00;62.70
46117;DHT22;32591;48.102;11.772;2022-08-21T15:08:45;26.10;63.70
46117;DHT22;32591;48.102;11.772;2022-08-21T15:11:16;26.00;64.20
46117;DHT22;32591;48.102;11.772;2022-08-21T15:13:46;25.80;64.00
46117;DHT22;32591;48.102;11.772;2022-08-21T15:16:13;25.40;65.70
46117;DHT22;32591;48.102;11.772;2022-08-21T15:18:40;25.00;66.70
46117;DHT22;32591;48.102;11.772;2022-08-21T15:21:08;25.20;67.70
46117;DHT22;32591;48.102;11.772;2022-08-21T15:23:35;25.50;65.20
46117;DHT22;32591;48.102;11.772;2022-08-21T15:26:03;25.70;63.50
46117;DHT22;32591;48.102;11.772;2022-08-21T15:28:30;25.80;64.00
46117;DHT22;32591;48.102;11.772;2022-08-21T15:30:59;25.70;64.40
46117;DHT22;32591;48.102;11.772;2022-08-21T15:33:27;25.60;63.80
46117;DHT22;32591;48.102;11.772;2022-08-21T15:35:54;25.30;65.00
46117;DHT22;32591;48.102;11.772;2022-08-21T15:38:21;25.50;64.50
46117;DHT22;32591;48.102;11.772;2022-08-21T15:40:48;25.80;64.10